createdAt,value
2023-04-29T00:00:41.642Z,11.51
2023-04-29T00:05:46.725Z,11.44
2023-04-29T00:10:54.848Z,11.37
2023-04-29T00:15:59.935Z,11.44
2023-04-29T00:21:06.392Z,11.41
2023-04-29T00:26:14.315Z,11.31
2023-04-29T00:31:24.828Z,11.48
2023-04-29T00:36:32.064Z,11.30
2023-04-29T00:41:41.428Z,11.66
2023-04-29T00:46:46.698Z,11.13
2023-04-29T00:51:53.140Z,11.19
2023-04-29T00:57:02.956Z,11.36
2023-04-29T01:02:08.290Z,11.20
2023-04-29T01:07:19.555Z,11.42
2023-04-29T01:12:33.617Z,11.46
2023-04-29T01:17:44.612Z,11.62
2023-04-29T01:22:52.725Z,11.58
2023-04-29T01:28:11.051Z,11.65
2023-04-29T01:33:25.338Z,11.44
2023-04-29T01:38:39.520Z,11.41
2023-04-29T01:43:53.050Z,11.64
2023-04-29T01:49:01.373Z,11.60
2023-04-29T01:54:08.226Z,11.55
2023-04-29T01:59:16.708Z,11.83
2023-04-29T02:04:43.923Z,11.73
2023-04-29T02:09:51.535Z,11.87
2023-04-29T02:15:00.503Z,11.77
2023-04-29T02:20:06.507Z,11.91
2023-04-29T02:25:14.954Z,11.62
2023-04-29T02:30:22.770Z,11.86
2023-04-29T02:35:28.270Z,12.02
2023-04-29T02:40:34.710Z,11.81
2023-04-29T02:45:42.950Z,11.61
2023-04-29T02:50:48.441Z,11.27
2023-04-29T02:55:54.371Z,11.48
2023-04-29T03:01:02.850Z,11.55
2023-04-29T03:06:07.899Z,11.42
2023-04-29T03:11:13.019Z,11.54
2023-04-29T03:16:21.651Z,11.67
2023-04-29T03:21:27.922Z,11.57
2023-04-29T03:26:33.106Z,11.53
2023-04-29T03:31:41.092Z,11.43
2023-04-29T03:36:46.395Z,11.53
2023-04-29T03:41:51.536Z,11.44
2023-04-29T03:46:59.692Z,11.65
2023-04-29T03:52:05.025Z,11.73
2023-04-29T03:57:11.897Z,11.77
2023-04-29T04:02:19.909Z,11.82
2023-04-29T04:07:25.458Z,11.90
2023-04-29T04:12:49.617Z,12.03
2023-04-29T04:17:57.567Z,12.12
2023-04-29T04:23:02.786Z,12.32
2023-04-29T04:28:08.701Z,12.31
2023-04-29T04:33:35.197Z,12.46
2023-04-29T04:38:42.774Z,12.56
2023-04-29T04:43:50.621Z,12.69
2023-04-29T04:49:05.048Z,12.79
2023-04-29T04:54:12.589Z,12.96
2023-04-29T04:59:18.249Z,12.84
2023-04-29T05:04:26.319Z,12.71
2023-04-29T05:09:32.201Z,12.64
2023-04-29T05:14:37.239Z,12.66
2023-04-29T05:19:45.129Z,12.78
2023-04-29T05:24:52.974Z,12.69
2023-04-29T05:29:59.928Z,12.58
2023-04-29T05:35:09.947Z,12.61
2023-04-29T05:40:15.956Z,12.88
2023-04-29T05:45:21.910Z,12.89
2023-04-29T05:50:30.947Z,12.89
2023-04-29T05:55:36.363Z,12.82
2023-04-29T06:00:42.421Z,12.74
2023-04-29T06:05:56.478Z,12.76
2023-04-29T06:11:31.705Z,12.69
2023-04-29T06:16:39.545Z,13.02
2023-04-29T06:21:49.825Z,14.57
2023-04-29T06:26:55.809Z,14.51
2023-04-29T06:32:01.348Z,13.99
2023-04-29T06:37:09.183Z,13.96
2023-04-29T06:42:43.955Z,13.82
2023-04-29T06:48:08.554Z,13.83
2023-04-29T06:53:34.382Z,13.81
2023-04-29T06:58:39.748Z,13.93
2023-04-29T07:03:46.615Z,13.93
2023-04-29T07:08:56.890Z,13.82
2023-04-29T07:14:03.243Z,13.48
2023-04-29T07:19:10.670Z,13.72
2023-04-29T07:24:20.667Z,13.88
2023-04-29T07:29:27.017Z,13.79
2023-04-29T07:34:32.456Z,13.57
2023-04-29T07:39:42.590Z,13.81
2023-04-29T07:44:48.693Z,13.70
2023-04-29T07:49:56.249Z,13.63
2023-04-29T07:55:04.420Z,13.66
2023-04-29T08:00:12.335Z,13.64
2023-04-29T08:05:21.915Z,13.40
2023-04-29T08:10:30.080Z,13.40
2023-04-29T08:15:35.290Z,13.35
2023-04-29T08:20:40.517Z,13.54
2023-04-29T08:25:52.112Z,13.63
2023-04-29T08:30:57.290Z,13.44
2023-04-29T08:36:03.895Z,14.28
2023-04-29T08:41:15.635Z,14.60
2023-04-29T08:46:22.976Z,14.55
2023-04-29T08:51:29.024Z,14.88
2023-04-29T08:56:37.473Z,14.66
2023-04-29T09:01:49.905Z,14.51
2023-04-29T09:06:58.408Z,14.49
2023-04-29T09:12:06.841Z,14.60
2023-04-29T09:17:11.927Z,14.97
2023-04-29T09:22:17.192Z,15.06
2023-04-29T09:27:34.825Z,14.48
2023-04-29T09:32:40.220Z,14.45
2023-04-29T09:37:45.145Z,14.20
2023-04-29T09:42:56.441Z,13.77
2023-04-29T09:48:06.004Z,13.92
2023-04-29T09:53:12.553Z,14.38
2023-04-29T09:58:31.269Z,14.14
2023-04-29T10:03:38.589Z,14.38
2023-04-29T10:08:44.752Z,14.00
2023-04-29T10:13:54.645Z,13.85
2023-04-29T10:19:03.870Z,13.95
2023-04-29T10:24:10.903Z,14.41
2023-04-29T10:29:20.321Z,14.33
2023-04-29T10:34:28.321Z,14.46
2023-04-29T10:39:39.715Z,14.33
2023-04-29T10:45:14.490Z,14.10
2023-04-29T10:50:22.400Z,14.31
2023-04-29T10:55:29.579Z,14.70
2023-04-29T11:00:38.054Z,14.65
2023-04-29T11:05:45.831Z,14.33
2023-04-29T11:10:51.268Z,14.71
2023-04-29T11:15:57.260Z,14.85
2023-04-29T11:21:21.211Z,14.02
2023-04-29T11:26:28.988Z,14.26
2023-04-29T11:31:35.097Z,13.89
2023-04-29T11:36:42.988Z,14.33
2023-04-29T11:41:48.131Z,14.09
2023-04-29T11:46:53.303Z,14.15
2023-04-29T11:52:05.873Z,14.12
2023-04-29T11:57:13.798Z,14.18
2023-04-29T12:02:18.886Z,14.48
2023-04-29T12:07:27.092Z,13.92
2023-04-29T12:12:36.796Z,14.23
2023-04-29T12:17:42.602Z,14.14
2023-04-29T12:22:52.375Z,14.41
2023-04-29T12:28:05.657Z,14.42
2023-04-29T12:33:13.884Z,14.53
2023-04-29T12:38:24.568Z,14.14
2023-04-29T12:43:31.278Z,14.27
2023-04-29T12:48:41.744Z,13.33
2023-04-29T12:53:49.752Z,13.13
2023-04-29T12:58:55.869Z,13.40
2023-04-29T13:04:01.210Z,13.39
2023-04-29T13:09:18.570Z,13.05
2023-04-29T13:14:24.611Z,13.16
2023-04-29T13:19:44.052Z,13.00
2023-04-29T13:24:57.666Z,13.07
2023-04-29T13:30:06.977Z,12.62
2023-04-29T13:35:14.368Z,12.17
2023-04-29T13:40:22.185Z,12.46
2023-04-29T13:45:29.160Z,12.33
2023-04-29T14:06:04.176Z,11.78
2023-04-29T14:11:11.958Z,11.45
2023-04-29T14:16:17.493Z,11.69
2023-04-29T14:21:22.982Z,12.09
2023-04-29T14:26:31.237Z,11.71
2023-04-29T14:31:39.291Z,11.70
2023-04-29T14:36:46.529Z,11.82
2023-04-29T14:41:54.349Z,11.85
2023-04-29T14:47:00.916Z,11.90
2023-04-29T14:52:06.090Z,12.01
2023-04-29T14:57:16.127Z,12.35
2023-04-29T15:02:23.671Z,12.00
2023-04-29T15:07:31.922Z,12.34
2023-04-29T15:12:39.644Z,12.40
2023-04-29T15:17:45.297Z,12.34
2023-04-29T15:22:50.449Z,12.28
2023-04-29T15:27:59.287Z,12.83
2023-04-29T15:33:04.829Z,12.40
2023-04-29T15:38:10.710Z,12.38
2023-04-29T15:43:18.524Z,12.27
2023-04-29T15:48:25.089Z,12.48
2023-04-29T15:53:30.074Z,12.67
2023-04-29T15:58:37.823Z,12.59
2023-04-29T16:03:44.973Z,12.78
2023-04-29T16:08:50.479Z,12.75
2023-04-29T16:13:59.145Z,12.48
2023-04-29T16:19:04.730Z,12.32
2023-04-29T16:24:10.063Z,12.27
2023-04-29T16:29:18.511Z,12.50
2023-04-29T16:34:24.900Z,12.39
2023-04-29T16:39:33.776Z,12.34
2023-04-29T16:44:42.534Z,12.46
2023-04-29T16:49:48.160Z,12.56
2023-04-29T16:54:55.755Z,12.35
2023-04-29T17:00:06.846Z,12.48
2023-04-29T17:05:15.387Z,12.61
2023-04-29T17:10:21.617Z,12.74
2023-04-29T17:15:29.673Z,12.77
2023-04-29T17:20:35.668Z,12.33
2023-04-29T17:25:41.006Z,12.34
2023-04-29T17:30:52.021Z,12.32
2023-04-29T17:35:56.979Z,12.20
2023-04-29T17:41:02.800Z,12.34
2023-04-29T17:46:11.672Z,12.20
2023-04-29T17:51:17.138Z,12.17
2023-04-29T17:56:23.587Z,12.07
2023-04-29T18:01:31.694Z,12.11
2023-04-29T18:06:36.951Z,11.87
2023-04-29T18:11:42.002Z,11.99
2023-04-29T18:16:51.754Z,11.98
2023-04-29T18:22:01.951Z,12.12
2023-04-29T18:27:07.351Z,12.01
2023-04-29T18:32:15.090Z,12.20
2023-04-29T18:37:20.253Z,12.18
2023-04-29T18:42:25.915Z,12.23
2023-04-29T18:47:33.731Z,12.19
2023-04-29T18:52:39.019Z,12.03
2023-04-29T18:57:44.201Z,12.23
2023-04-29T19:02:51.944Z,12.22
2023-04-29T19:07:57.758Z,12.18
2023-04-29T19:13:02.834Z,12.51
2023-04-29T19:18:13.681Z,12.31
2023-04-29T19:23:21.913Z,12.23
2023-04-29T19:28:29.181Z,12.32
2023-04-29T19:33:36.908Z,12.32
2023-04-29T19:38:42.117Z,12.16
2023-04-29T19:43:48.060Z,12.20
2023-04-29T19:48:55.891Z,12.22
2023-04-29T19:54:08.154Z,12.10
2023-04-29T19:59:15.401Z,12.22
2023-04-29T20:04:24.697Z,12.18
2023-04-29T20:09:33.196Z,12.22
2023-04-29T20:14:38.231Z,12.06
2023-04-29T20:19:48.096Z,12.31
2023-04-29T20:24:53.724Z,12.05
2023-04-29T20:29:59.482Z,12.02
2023-04-29T20:35:08.424Z,12.04
2023-04-29T20:40:16.371Z,12.01
2023-04-29T20:45:22.378Z,12.04
2023-04-29T20:50:32.263Z,12.00
2023-04-29T20:55:37.400Z,12.07
2023-04-29T21:00:42.538Z,11.94
2023-04-29T21:05:50.171Z,11.95
2023-04-29T21:10:55.360Z,11.99
2023-04-29T21:16:00.580Z,12.14
2023-04-29T21:21:09.061Z,11.94
2023-04-29T21:26:16.650Z,12.09
2023-04-29T21:31:22.430Z,11.81
2023-04-29T21:36:32.215Z,11.80
2023-04-29T21:41:40.848Z,11.86
2023-04-29T21:46:46.116Z,11.85
2023-04-29T21:51:53.965Z,11.72
2023-04-29T21:56:59.679Z,11.75
2023-04-29T22:02:14.762Z,11.79
2023-04-29T22:07:26.410Z,11.80
2023-04-29T22:12:31.446Z,11.67
2023-04-29T22:17:37.736Z,11.77
2023-04-29T22:22:46.619Z,11.86
2023-04-29T22:27:52.379Z,11.86
2023-04-29T22:32:59.365Z,11.90
2023-04-29T22:38:07.225Z,11.64
2023-04-29T22:43:12.255Z,11.66
2023-04-29T22:48:17.596Z,11.79
2023-04-29T22:53:26.969Z,11.66
2023-04-29T22:58:33.878Z,11.71
2023-04-29T23:03:38.930Z,11.43
2023-04-29T23:08:47.499Z,11.47
2023-04-29T23:13:53.098Z,11.51
2023-04-29T23:18:58.263Z,11.39
2023-04-29T23:24:08.026Z,11.50
2023-04-29T23:29:13.430Z,11.31
2023-04-29T23:34:20.551Z,11.44
2023-04-29T23:39:28.288Z,11.59
2023-04-29T23:44:33.259Z,11.50
2023-04-29T23:49:38.761Z,11.52
2023-04-29T23:54:46.445Z,11.42
2023-04-29T23:59:53.232Z,11.53
